sensor_id;sensor_type;location;lat;lon;timestamp;P1;durP1;ratioP1;P2;durP2;ratioP2
58621;SDS011;44389;51.578;5.456;2023-05-23T00:01:41;42.35;;;32.80;;
58621;SDS011;44389;51.578;5.456;2023-05-23T00:04:07;40.97;;;32.03;;
58621;SDS011;44389;51.578;5.456;2023-05-23T00:06:34;41.10;;;32.63;;
58621;SDS011;44389;51.578;5.456;2023-05-23T00:09:00;39.85;;;32.78;;
58621;SDS011;44389;51.578;5.456;2023-05-23T00:11:25;36.80;;;30.48;;
58621;SDS011;44389;51.578;5.456;2023-05-23T00:13:52;40.95;;;31.02;;
58621;SDS011;44389;51.578;5.456;2023-05-23T00:16:18;39.20;;;31.75;;
58621;SDS011;44389;51.578;5.456;2023-05-23T00:18:45;36.50;;;31.38;;
58621;SDS011;44389;51.578;5.456;2023-05-23T00:21:10;34.08;;;29.77;;
58621;SDS011;44389;51.578;5.456;2023-05-23T00:23:37;37.67;;;29.42;;
58621;SDS011;44389;51.578;5.456;2023-05-23T00:26:06;34.47;;;27.70;;
58621;SDS011;44389;51.578;5.456;2023-05-23T00:28:31;33.35;;;27.92;;
58621;SDS011;44389;51.578;5.456;2023-05-23T00:30:57;32.65;;;27.70;;
58621;SDS011;44389;51.578;5.456;2023-05-23T00:33:22;32.47;;;26.73;;
58621;SDS011;44389;51.578;5.456;2023-05-23T00:35:47;31.48;;;26.13;;
58621;SDS011;44389;51.578;5.456;2023-05-23T00:38:13;30.45;;;25.42;;
58621;SDS011;44389;51.578;5.456;2023-05-23T00:40:38;28.65;;;23.95;;
58621;SDS011;44389;51.578;5.456;2023-05-23T00:43:04;25.38;;;22.63;;
58621;SDS011;44389;51.578;5.456;2023-05-23T00:45:30;25.55;;;22.27;;
58621;SDS011;44389;51.578;5.456;2023-05-23T00:47:55;28.38;;;21.88;;
58621;SDS011;44389;51.578;5.456;2023-05-23T00:50:23;34.17;;;22.38;;
58621;SDS011;44389;51.578;5.456;2023-05-23T00:52:49;27.95;;;21.23;;
58621;SDS011;44389;51.578;5.456;2023-05-23T00:55:14;25.38;;;21.23;;
58621;SDS011;44389;51.578;5.456;2023-05-23T00:57:40;27.58;;;22.05;;
58621;SDS011;44389;51.578;5.456;2023-05-23T01:00:08;26.73;;;21.67;;
58621;SDS011;44389;51.578;5.456;2023-05-23T01:02:36;29.23;;;21.75;;
58621;SDS011;44389;51.578;5.456;2023-05-23T01:05:07;27.88;;;20.92;;
58621;SDS011;44389;51.578;5.456;2023-05-23T01:07:33;25.52;;;19.98;;
58621;SDS011;44389;51.578;5.456;2023-05-23T01:09:59;23.35;;;19.50;;
58621;SDS011;44389;51.578;5.456;2023-05-23T01:14:59;29.52;;;21.48;;
58621;SDS011;44389;51.578;5.456;2023-05-23T01:17:28;30.55;;;20.00;;
58621;SDS011;44389;51.578;5.456;2023-05-23T01:20:14;26.17;;;19.75;;
58621;SDS011;44389;51.578;5.456;2023-05-23T01:28:03;27.17;;;19.10;;
58621;SDS011;44389;51.578;5.456;2023-05-23T01:30:31;31.33;;;20.17;;
58621;SDS011;44389;51.578;5.456;2023-05-23T01:33:03;28.80;;;19.75;;
58621;SDS011;44389;51.578;5.456;2023-05-23T01:35:28;29.92;;;19.75;;
58621;SDS011;44389;51.578;5.456;2023-05-23T01:37:55;31.38;;;20.58;;
58621;SDS011;44389;51.578;5.456;2023-05-23T01:40:21;31.88;;;20.00;;
58621;SDS011;44389;51.578;5.456;2023-05-23T01:42:47;30.55;;;21.08;;
58621;SDS011;44389;51.578;5.456;2023-05-23T01:45:13;32.95;;;20.67;;
58621;SDS011;44389;51.578;5.456;2023-05-23T01:47:40;30.23;;;20.23;;
58621;SDS011;44389;51.578;5.456;2023-05-23T01:50:06;37.10;;;22.55;;
58621;SDS011;44389;51.578;5.456;2023-05-23T01:52:34;40.30;;;20.70;;
58621;SDS011;44389;51.578;5.456;2023-05-23T01:55:00;38.08;;;20.52;;
58621;SDS011;44389;51.578;5.456;2023-05-23T01:57:28;36.03;;;22.00;;
58621;SDS011;44389;51.578;5.456;2023-05-23T02:02:20;35.95;;;22.92;;
58621;SDS011;44389;51.578;5.456;2023-05-23T02:04:45;37.42;;;22.48;;
58621;SDS011;44389;51.578;5.456;2023-05-23T02:07:10;37.47;;;22.92;;
58621;SDS011;44389;51.578;5.456;2023-05-23T02:09:36;33.35;;;22.50;;
58621;SDS011;44389;51.578;5.456;2023-05-23T02:12:01;36.30;;;21.83;;
58621;SDS011;44389;51.578;5.456;2023-05-23T02:14:26;38.25;;;22.65;;
58621;SDS011;44389;51.578;5.456;2023-05-23T02:16:52;42.47;;;22.30;;
58621;SDS011;44389;51.578;5.456;2023-05-23T02:19:18;34.45;;;22.70;;
58621;SDS011;44389;51.578;5.456;2023-05-23T02:21:43;36.75;;;22.27;;
58621;SDS011;44389;51.578;5.456;2023-05-23T02:24:08;36.70;;;21.40;;
58621;SDS011;44389;51.578;5.456;2023-05-23T02:26:33;29.88;;;18.83;;
58621;SDS011;44389;51.578;5.456;2023-05-23T02:28:59;30.85;;;19.02;;
58621;SDS011;44389;51.578;5.456;2023-05-23T02:31:25;28.95;;;18.33;;
58621;SDS011;44389;51.578;5.456;2023-05-23T02:33:50;24.77;;;16.80;;
58621;SDS011;44389;51.578;5.456;2023-05-23T02:36:16;22.23;;;14.68;;
58621;SDS011;44389;51.578;5.456;2023-05-23T02:38:41;21.08;;;14.32;;
58621;SDS011;44389;51.578;5.456;2023-05-23T02:41:06;25.38;;;14.68;;
58621;SDS011;44389;51.578;5.456;2023-05-23T02:43:32;24.35;;;16.73;;
58621;SDS011;44389;51.578;5.456;2023-05-23T02:45:57;28.73;;;17.42;;
58621;SDS011;44389;51.578;5.456;2023-05-23T02:48:22;25.65;;;15.70;;
58621;SDS011;44389;51.578;5.456;2023-05-23T02:50:47;24.38;;;15.02;;
58621;SDS011;44389;51.578;5.456;2023-05-23T02:53:13;20.52;;;13.63;;
58621;SDS011;44389;51.578;5.456;2023-05-23T02:55:38;18.80;;;12.73;;
58621;SDS011;44389;51.578;5.456;2023-05-23T02:58:03;17.83;;;12.52;;
58621;SDS011;44389;51.578;5.456;2023-05-23T03:00:29;17.65;;;12.55;;
58621;SDS011;44389;51.578;5.456;2023-05-23T03:02:56;19.08;;;12.65;;
58621;SDS011;44389;51.578;5.456;2023-05-23T03:05:22;17.05;;;12.18;;
58621;SDS011;44389;51.578;5.456;2023-05-23T03:07:47;17.65;;;9.80;;
58621;SDS011;44389;51.578;5.456;2023-05-23T03:10:12;16.60;;;9.90;;
58621;SDS011;44389;51.578;5.456;2023-05-23T03:12:38;14.25;;;9.48;;
58621;SDS011;44389;51.578;5.456;2023-05-23T03:15:03;11.52;;;9.25;;
58621;SDS011;44389;51.578;5.456;2023-05-23T03:17:29;12.02;;;8.85;;
58621;SDS011;44389;51.578;5.456;2023-05-23T03:19:54;13.50;;;9.02;;
58621;SDS011;44389;51.578;5.456;2023-05-23T03:22:20;12.90;;;8.57;;
58621;SDS011;44389;51.578;5.456;2023-05-23T03:24:45;14.02;;;8.57;;
58621;SDS011;44389;51.578;5.456;2023-05-23T03:27:10;12.25;;;8.50;;
58621;SDS011;44389;51.578;5.456;2023-05-23T03:29:36;11.70;;;8.10;;
58621;SDS011;44389;51.578;5.456;2023-05-23T03:32:01;12.75;;;8.30;;
58621;SDS011;44389;51.578;5.456;2023-05-23T03:34:26;12.48;;;8.63;;
58621;SDS011;44389;51.578;5.456;2023-05-23T03:36:52;14.80;;;8.18;;
58621;SDS011;44389;51.578;5.456;2023-05-23T03:39:17;11.80;;;8.63;;
58621;SDS011;44389;51.578;5.456;2023-05-23T03:41:42;10.75;;;8.00;;
58621;SDS011;44389;51.578;5.456;2023-05-23T03:44:08;12.25;;;8.98;;
58621;SDS011;44389;51.578;5.456;2023-05-23T03:46:33;12.38;;;8.43;;
58621;SDS011;44389;51.578;5.456;2023-05-23T03:48:59;15.40;;;8.55;;
58621;SDS011;44389;51.578;5.456;2023-05-23T03:51:24;14.23;;;9.27;;
58621;SDS011;44389;51.578;5.456;2023-05-23T03:53:49;11.95;;;9.25;;
58621;SDS011;44389;51.578;5.456;2023-05-23T03:56:15;13.35;;;8.52;;
58621;SDS011;44389;51.578;5.456;2023-05-23T03:58:40;13.60;;;8.85;;
58621;SDS011;44389;51.578;5.456;2023-05-23T04:01:05;15.65;;;9.60;;
58621;SDS011;44389;51.578;5.456;2023-05-23T04:03:31;17.77;;;10.05;;
58621;SDS011;44389;51.578;5.456;2023-05-23T04:05:57;17.70;;;10.82;;
58621;SDS011;44389;51.578;5.456;2023-05-23T04:08:23;16.67;;;10.80;;
58621;SDS011;44389;51.578;5.456;2023-05-23T04:10:49;17.35;;;10.57;;
58621;SDS011;44389;51.578;5.456;2023-05-23T04:13:14;20.17;;;10.18;;
58621;SDS011;44389;51.578;5.456;2023-05-23T04:15:40;20.85;;;10.90;;
58621;SDS011;44389;51.578;5.456;2023-05-23T04:18:06;18.30;;;10.07;;
58621;SDS011;44389;51.578;5.456;2023-05-23T04:20:33;18.13;;;11.02;;
58621;SDS011;44389;51.578;5.456;2023-05-23T04:22:58;18.77;;;11.75;;
58621;SDS011;44389;51.578;5.456;2023-05-23T04:25:23;16.90;;;10.40;;
58621;SDS011;44389;51.578;5.456;2023-05-23T04:27:49;19.30;;;10.43;;
58621;SDS011;44389;51.578;5.456;2023-05-23T04:30:14;19.85;;;11.02;;
58621;SDS011;44389;51.578;5.456;2023-05-23T04:32:41;19.42;;;11.02;;
58621;SDS011;44389;51.578;5.456;2023-05-23T04:35:07;18.35;;;10.88;;
58621;SDS011;44389;51.578;5.456;2023-05-23T04:37:33;21.08;;;10.63;;
58621;SDS011;44389;51.578;5.456;2023-05-23T04:39:59;20.05;;;10.98;;
58621;SDS011;44389;51.578;5.456;2023-05-23T04:42:25;16.58;;;11.32;;
58621;SDS011;44389;51.578;5.456;2023-05-23T04:44:50;19.42;;;11.68;;
58621;SDS011;44389;51.578;5.456;2023-05-23T04:47:16;24.60;;;12.80;;
58621;SDS011;44389;51.578;5.456;2023-05-23T04:49:43;19.55;;;12.02;;
58621;SDS011;44389;51.578;5.456;2023-05-23T04:52:09;21.95;;;12.48;;
58621;SDS011;44389;51.578;5.456;2023-05-23T04:54:34;20.60;;;11.93;;
58621;SDS011;44389;51.578;5.456;2023-05-23T04:57:01;21.90;;;13.27;;
58621;SDS011;44389;51.578;5.456;2023-05-23T04:59:27;22.55;;;13.20;;
58621;SDS011;44389;51.578;5.456;2023-05-23T05:01:52;31.65;;;14.88;;
58621;SDS011;44389;51.578;5.456;2023-05-23T05:04:17;34.95;;;17.13;;
58621;SDS011;44389;51.578;5.456;2023-05-23T05:06:43;30.05;;;16.45;;
58621;SDS011;44389;51.578;5.456;2023-05-23T05:09:08;36.17;;;18.15;;
58621;SDS011;44389;51.578;5.456;2023-05-23T05:11:33;30.02;;;16.20;;
58621;SDS011;44389;51.578;5.456;2023-05-23T05:13:58;26.90;;;15.45;;
58621;SDS011;44389;51.578;5.456;2023-05-23T05:16:24;34.53;;;16.05;;
58621;SDS011;44389;51.578;5.456;2023-05-23T05:18:49;27.63;;;15.57;;
58621;SDS011;44389;51.578;5.456;2023-05-23T05:21:15;33.78;;;16.05;;
58621;SDS011;44389;51.578;5.456;2023-05-23T05:23:40;37.00;;;15.88;;
58621;SDS011;44389;51.578;5.456;2023-05-23T05:26:05;35.00;;;16.52;;
58621;SDS011;44389;51.578;5.456;2023-05-23T05:28:32;35.45;;;16.45;;
58621;SDS011;44389;51.578;5.456;2023-05-23T05:30:57;32.15;;;16.83;;
58621;SDS011;44389;51.578;5.456;2023-05-23T05:33:22;40.15;;;16.90;;
58621;SDS011;44389;51.578;5.456;2023-05-23T05:35:48;38.67;;;16.75;;
58621;SDS011;44389;51.578;5.456;2023-05-23T05:38:15;25.63;;;12.48;;
58621;SDS011;44389;51.578;5.456;2023-05-23T05:40:41;24.10;;;12.02;;
58621;SDS011;44389;51.578;5.456;2023-05-23T05:43:06;22.15;;;11.65;;
58621;SDS011;44389;51.578;5.456;2023-05-23T05:45:32;24.77;;;11.60;;
58621;SDS011;44389;51.578;5.456;2023-05-23T05:47:57;27.58;;;13.02;;
58621;SDS011;44389;51.578;5.456;2023-05-23T05:50:22;27.77;;;13.45;;
58621;SDS011;44389;51.578;5.456;2023-05-23T05:52:48;24.30;;;13.48;;
58621;SDS011;44389;51.578;5.456;2023-05-23T05:55:13;27.95;;;12.88;;
58621;SDS011;44389;51.578;5.456;2023-05-23T05:57:39;24.08;;;11.82;;
58621;SDS011;44389;51.578;5.456;2023-05-23T06:00:06;21.10;;;11.13;;
58621;SDS011;44389;51.578;5.456;2023-05-23T06:02:37;25.67;;;10.30;;
58621;SDS011;44389;51.578;5.456;2023-05-23T06:05:03;24.17;;;10.88;;
58621;SDS011;44389;51.578;5.456;2023-05-23T06:07:30;24.58;;;10.50;;
58621;SDS011;44389;51.578;5.456;2023-05-23T06:09:55;22.17;;;9.40;;
58621;SDS011;44389;51.578;5.456;2023-05-23T06:12:20;22.02;;;10.10;;
58621;SDS011;44389;51.578;5.456;2023-05-23T06:14:46;22.20;;;9.60;;
58621;SDS011;44389;51.578;5.456;2023-05-23T06:17:11;16.88;;;9.18;;
58621;SDS011;44389;51.578;5.456;2023-05-23T06:19:36;18.38;;;9.23;;
58621;SDS011;44389;51.578;5.456;2023-05-23T06:22:02;19.92;;;10.18;;
58621;SDS011;44389;51.578;5.456;2023-05-23T06:24:27;26.02;;;9.43;;
58621;SDS011;44389;51.578;5.456;2023-05-23T06:26:53;19.42;;;8.90;;
58621;SDS011;44389;51.578;5.456;2023-05-23T06:29:18;22.92;;;9.68;;
58621;SDS011;44389;51.578;5.456;2023-05-23T06:31:43;23.48;;;9.98;;
58621;SDS011;44389;51.578;5.456;2023-05-23T06:34:09;25.63;;;9.45;;
58621;SDS011;44389;51.578;5.456;2023-05-23T06:36:34;21.10;;;8.85;;
58621;SDS011;44389;51.578;5.456;2023-05-23T06:38:59;20.58;;;9.25;;
58621;SDS011;44389;51.578;5.456;2023-05-23T06:41:24;18.65;;;8.80;;
58621;SDS011;44389;51.578;5.456;2023-05-23T06:43:51;17.30;;;8.73;;
58621;SDS011;44389;51.578;5.456;2023-05-23T06:46:17;19.98;;;9.48;;
58621;SDS011;44389;51.578;5.456;2023-05-23T06:48:42;19.70;;;8.13;;
58621;SDS011;44389;51.578;5.456;2023-05-23T06:51:07;18.30;;;8.18;;
58621;SDS011;44389;51.578;5.456;2023-05-23T06:53:32;20.63;;;8.15;;
58621;SDS011;44389;51.578;5.456;2023-05-23T06:55:58;18.27;;;7.60;;
58621;SDS011;44389;51.578;5.456;2023-05-23T06:58:23;21.10;;;8.50;;
58621;SDS011;44389;51.578;5.456;2023-05-23T07:00:49;17.65;;;8.48;;
58621;SDS011;44389;51.578;5.456;2023-05-23T07:03:14;18.77;;;8.35;;
58621;SDS011;44389;51.578;5.456;2023-05-23T07:05:40;20.45;;;8.07;;
58621;SDS011;44389;51.578;5.456;2023-05-23T07:08:05;34.08;;;8.65;;
58621;SDS011;44389;51.578;5.456;2023-05-23T07:10:31;19.02;;;7.63;;
58621;SDS011;44389;51.578;5.456;2023-05-23T07:12:58;19.60;;;6.93;;
58621;SDS011;44389;51.578;5.456;2023-05-23T07:15:23;20.70;;;7.68;;
58621;SDS011;44389;51.578;5.456;2023-05-23T07:17:49;16.23;;;6.57;;
58621;SDS011;44389;51.578;5.456;2023-05-23T07:20:14;17.45;;;7.20;;
58621;SDS011;44389;51.578;5.456;2023-05-23T07:22:39;16.83;;;6.72;;
58621;SDS011;44389;51.578;5.456;2023-05-23T07:25:05;20.02;;;6.97;;
58621;SDS011;44389;51.578;5.456;2023-05-23T07:27:31;17.33;;;7.00;;
58621;SDS011;44389;51.578;5.456;2023-05-23T07:29:56;19.35;;;7.32;;
58621;SDS011;44389;51.578;5.456;2023-05-23T07:32:22;15.80;;;7.20;;
58621;SDS011;44389;51.578;5.456;2023-05-23T07:34:47;15.07;;;7.25;;
58621;SDS011;44389;51.578;5.456;2023-05-23T07:37:12;19.48;;;7.20;;
58621;SDS011;44389;51.578;5.456;2023-05-23T07:39:37;13.95;;;6.90;;
58621;SDS011;44389;51.578;5.456;2023-05-23T07:42:03;19.15;;;7.00;;
58621;SDS011;44389;51.578;5.456;2023-05-23T07:44:28;16.80;;;7.25;;
58621;SDS011;44389;51.578;5.456;2023-05-23T07:46:53;14.85;;;7.13;;
58621;SDS011;44389;51.578;5.456;2023-05-23T07:49:19;12.57;;;6.43;;
58621;SDS011;44389;51.578;5.456;2023-05-23T07:51:44;13.60;;;6.68;;
58621;SDS011;44389;51.578;5.456;2023-05-23T07:54:10;15.27;;;7.72;;
58621;SDS011;44389;51.578;5.456;2023-05-23T07:56:35;14.50;;;7.00;;
58621;SDS011;44389;51.578;5.456;2023-05-23T07:59:02;14.30;;;6.53;;
58621;SDS011;44389;51.578;5.456;2023-05-23T08:01:27;17.90;;;7.45;;
58621;SDS011;44389;51.578;5.456;2023-05-23T08:03:53;14.10;;;6.57;;
58621;SDS011;44389;51.578;5.456;2023-05-23T08:06:19;16.25;;;6.53;;
58621;SDS011;44389;51.578;5.456;2023-05-23T08:08:44;16.25;;;6.43;;
58621;SDS011;44389;51.578;5.456;2023-05-23T08:11:10;14.52;;;6.50;;
58621;SDS011;44389;51.578;5.456;2023-05-23T08:13:35;15.27;;;6.70;;
58621;SDS011;44389;51.578;5.456;2023-05-23T08:16:00;17.55;;;7.30;;
58621;SDS011;44389;51.578;5.456;2023-05-23T08:18:25;17.30;;;7.20;;
58621;SDS011;44389;51.578;5.456;2023-05-23T08:20:51;13.93;;;6.80;;
58621;SDS011;44389;51.578;5.456;2023-05-23T08:23:17;37.85;;;9.75;;
58621;SDS011;44389;51.578;5.456;2023-05-23T08:25:43;14.93;;;7.35;;
58621;SDS011;44389;51.578;5.456;2023-05-23T08:28:09;17.25;;;7.78;;
58621;SDS011;44389;51.578;5.456;2023-05-23T08:30:34;12.98;;;6.57;;
58621;SDS011;44389;51.578;5.456;2023-05-23T08:33:00;12.32;;;5.75;;
58621;SDS011;44389;51.578;5.456;2023-05-23T08:37:57;13.82;;;6.03;;
58621;SDS011;44389;51.578;5.456;2023-05-23T08:40:23;14.57;;;6.70;;
58621;SDS011;44389;51.578;5.456;2023-05-23T08:42:53;13.05;;;6.60;;
58621;SDS011;44389;51.578;5.456;2023-05-23T08:45:18;14.82;;;6.60;;
58621;SDS011;44389;51.578;5.456;2023-05-23T08:47:44;15.00;;;6.55;;
58621;SDS011;44389;51.578;5.456;2023-05-23T08:50:11;15.65;;;7.25;;
58621;SDS011;44389;51.578;5.456;2023-05-23T08:55:16;13.23;;;5.43;;
58621;SDS011;44389;51.578;5.456;2023-05-23T08:57:41;11.80;;;5.60;;
58621;SDS011;44389;51.578;5.456;2023-05-23T09:00:10;12.43;;;5.47;;
58621;SDS011;44389;51.578;5.456;2023-05-23T09:02:39;12.15;;;5.10;;
58621;SDS011;44389;51.578;5.456;2023-05-23T09:05:07;15.77;;;5.40;;
58621;SDS011;44389;51.578;5.456;2023-05-23T09:07:33;10.25;;;4.43;;
58621;SDS011;44389;51.578;5.456;2023-05-23T09:09:59;15.38;;;4.82;;
58621;SDS011;44389;51.578;5.456;2023-05-23T09:12:24;12.68;;;4.68;;
58621;SDS011;44389;51.578;5.456;2023-05-23T09:14:50;12.10;;;4.18;;
58621;SDS011;44389;51.578;5.456;2023-05-23T09:17:18;14.95;;;4.30;;
58621;SDS011;44389;51.578;5.456;2023-05-23T09:19:43;17.30;;;4.80;;
58621;SDS011;44389;51.578;5.456;2023-05-23T09:22:10;19.35;;;4.70;;
58621;SDS011;44389;51.578;5.456;2023-05-23T09:24:35;16.17;;;4.25;;
58621;SDS011;44389;51.578;5.456;2023-05-23T09:27:03;13.82;;;4.07;;
58621;SDS011;44389;51.578;5.456;2023-05-23T09:32:28;13.80;;;4.33;;
58621;SDS011;44389;51.578;5.456;2023-05-23T09:37:15;14.63;;;4.07;;
58621;SDS011;44389;51.578;5.456;2023-05-23T09:39:46;12.88;;;3.67;;
58621;SDS011;44389;51.578;5.456;2023-05-23T09:42:17;14.88;;;3.88;;
58621;SDS011;44389;51.578;5.456;2023-05-23T09:44:44;15.90;;;4.18;;
58621;SDS011;44389;51.578;5.456;2023-05-23T09:47:10;15.57;;;4.60;;
58621;SDS011;44389;51.578;5.456;2023-05-23T09:49:37;14.63;;;3.85;;
58621;SDS011;44389;51.578;5.456;2023-05-23T09:52:04;17.63;;;4.35;;
58621;SDS011;44389;51.578;5.456;2023-05-23T09:54:29;14.93;;;3.60;;
58621;SDS011;44389;51.578;5.456;2023-05-23T09:56:54;19.55;;;4.22;;
58621;SDS011;44389;51.578;5.456;2023-05-23T09:59:25;16.20;;;4.20;;
58621;SDS011;44389;51.578;5.456;2023-05-23T10:04:20;13.02;;;3.97;;
58621;SDS011;44389;51.578;5.456;2023-05-23T10:06:50;15.90;;;3.85;;
58621;SDS011;44389;51.578;5.456;2023-05-23T10:09:19;12.20;;;3.58;;
58621;SDS011;44389;51.578;5.456;2023-05-23T10:12:15;13.60;;;4.05;;
58621;SDS011;44389;51.578;5.456;2023-05-23T10:15:01;10.52;;;3.05;;
58621;SDS011;44389;51.578;5.456;2023-05-23T10:18:13;18.42;;;4.15;;
58621;SDS011;44389;51.578;5.456;2023-05-23T10:20:27;11.98;;;3.83;;
58621;SDS011;44389;51.578;5.456;2023-05-23T10:22:55;11.80;;;3.65;;
58621;SDS011;44389;51.578;5.456;2023-05-23T10:25:23;18.17;;;4.63;;
58621;SDS011;44389;51.578;5.456;2023-05-23T10:27:48;12.07;;;3.67;;
58621;SDS011;44389;51.578;5.456;2023-05-23T10:30:14;13.48;;;3.58;;
58621;SDS011;44389;51.578;5.456;2023-05-23T10:32:40;12.82;;;3.95;;
58621;SDS011;44389;51.578;5.456;2023-05-23T10:35:09;13.33;;;4.17;;
58621;SDS011;44389;51.578;5.456;2023-05-23T10:40:49;15.55;;;3.72;;
58621;SDS011;44389;51.578;5.456;2023-05-23T10:43:43;13.85;;;3.35;;
58621;SDS011;44389;51.578;5.456;2023-05-23T10:46:11;13.85;;;3.40;;
58621;SDS011;44389;51.578;5.456;2023-05-23T10:48:41;13.07;;;3.60;;
58621;SDS011;44389;51.578;5.456;2023-05-23T10:51:08;14.23;;;3.55;;
58621;SDS011;44389;51.578;5.456;2023-05-23T10:53:35;11.25;;;3.22;;
58621;SDS011;44389;51.578;5.456;2023-05-23T10:56:05;13.55;;;3.70;;
58621;SDS011;44389;51.578;5.456;2023-05-23T10:58:32;15.88;;;4.43;;
58621;SDS011;44389;51.578;5.456;2023-05-23T11:00:59;11.50;;;3.80;;
58621;SDS011;44389;51.578;5.456;2023-05-23T11:03:30;15.32;;;3.88;;
58621;SDS011;44389;51.578;5.456;2023-05-23T11:05:59;15.30;;;4.38;;
58621;SDS011;44389;51.578;5.456;2023-05-23T11:08:25;9.90;;;3.30;;
58621;SDS011;44389;51.578;5.456;2023-05-23T11:13:17;13.57;;;3.75;;
58621;SDS011;44389;51.578;5.456;2023-05-23T11:15:45;12.20;;;3.50;;
58621;SDS011;44389;51.578;5.456;2023-05-23T11:18:18;16.27;;;4.05;;
58621;SDS011;44389;51.578;5.456;2023-05-23T11:20:45;12.25;;;3.83;;
58621;SDS011;44389;51.578;5.456;2023-05-23T11:23:11;15.25;;;3.90;;
58621;SDS011;44389;51.578;5.456;2023-05-23T11:28:06;12.27;;;3.42;;
58621;SDS011;44389;51.578;5.456;2023-05-23T11:30:32;11.10;;;3.10;;
58621;SDS011;44389;51.578;5.456;2023-05-23T11:33:04;13.80;;;3.70;;
58621;SDS011;44389;51.578;5.456;2023-05-23T11:35:49;12.68;;;3.88;;
58621;SDS011;44389;51.578;5.456;2023-05-23T11:38:15;10.75;;;3.42;;
58621;SDS011;44389;51.578;5.456;2023-05-23T11:40:42;12.60;;;3.53;;
58621;SDS011;44389;51.578;5.456;2023-05-23T11:43:09;13.77;;;3.15;;
58621;SDS011;44389;51.578;5.456;2023-05-23T11:45:36;11.70;;;3.13;;
58621;SDS011;44389;51.578;5.456;2023-05-23T11:48:12;13.50;;;3.08;;
58621;SDS011;44389;51.578;5.456;2023-05-23T11:50:48;11.00;;;3.05;;
58621;SDS011;44389;51.578;5.456;2023-05-23T11:53:18;8.93;;;2.70;;
58621;SDS011;44389;51.578;5.456;2023-05-23T11:55:55;12.65;;;3.78;;
58621;SDS011;44389;51.578;5.456;2023-05-23T11:58:25;13.77;;;3.28;;
58621;SDS011;44389;51.578;5.456;2023-05-23T12:01:03;11.70;;;3.50;;
58621;SDS011;44389;51.578;5.456;2023-05-23T12:03:29;16.65;;;3.83;;
58621;SDS011;44389;51.578;5.456;2023-05-23T12:05:55;10.77;;;3.55;;
58621;SDS011;44389;51.578;5.456;2023-05-23T12:08:21;8.35;;;2.80;;
58621;SDS011;44389;51.578;5.456;2023-05-23T12:10:50;11.27;;;2.78;;
58621;SDS011;44389;51.578;5.456;2023-05-23T12:13:17;11.35;;;3.28;;
58621;SDS011;44389;51.578;5.456;2023-05-23T12:15:43;10.75;;;3.00;;
58621;SDS011;44389;51.578;5.456;2023-05-23T12:18:08;11.35;;;3.40;;
58621;SDS011;44389;51.578;5.456;2023-05-23T12:20:36;10.57;;;2.75;;
58621;SDS011;44389;51.578;5.456;2023-05-23T12:23:04;11.68;;;3.30;;
58621;SDS011;44389;51.578;5.456;2023-05-23T12:25:39;11.27;;;3.15;;
58621;SDS011;44389;51.578;5.456;2023-05-23T12:28:06;9.35;;;3.22;;
58621;SDS011;44389;51.578;5.456;2023-05-23T12:30:39;8.32;;;2.60;;
58621;SDS011;44389;51.578;5.456;2023-05-23T12:33:07;9.07;;;2.53;;
58621;SDS011;44389;51.578;5.456;2023-05-23T12:35:33;9.73;;;2.72;;
58621;SDS011;44389;51.578;5.456;2023-05-23T12:37:58;10.40;;;3.35;;
58621;SDS011;44389;51.578;5.456;2023-05-23T12:40:23;11.88;;;2.97;;
58621;SDS011;44389;51.578;5.456;2023-05-23T12:42:50;8.27;;;2.70;;
58621;SDS011;44389;51.578;5.456;2023-05-23T12:45:22;8.85;;;2.83;;
58621;SDS011;44389;51.578;5.456;2023-05-23T12:47:48;8.68;;;2.72;;
58621;SDS011;44389;51.578;5.456;2023-05-23T12:50:14;9.25;;;2.83;;
58621;SDS011;44389;51.578;5.456;2023-05-23T12:52:39;11.38;;;3.00;;
58621;SDS011;44389;51.578;5.456;2023-05-23T12:55:05;9.80;;;2.65;;
58621;SDS011;44389;51.578;5.456;2023-05-23T12:57:32;12.63;;;2.93;;
58621;SDS011;44389;51.578;5.456;2023-05-23T12:59:58;12.13;;;3.28;;
58621;SDS011;44389;51.578;5.456;2023-05-23T13:02:23;10.82;;;2.90;;
58621;SDS011;44389;51.578;5.456;2023-05-23T13:04:49;10.57;;;2.85;;
58621;SDS011;44389;51.578;5.456;2023-05-23T13:07:14;10.70;;;3.13;;
58621;SDS011;44389;51.578;5.456;2023-05-23T13:09:39;13.25;;;3.25;;
58621;SDS011;44389;51.578;5.456;2023-05-23T13:12:05;13.07;;;3.45;;
58621;SDS011;44389;51.578;5.456;2023-05-23T13:14:30;11.43;;;3.00;;
58621;SDS011;44389;51.578;5.456;2023-05-23T13:16:55;12.20;;;2.92;;
58621;SDS011;44389;51.578;5.456;2023-05-23T13:19:21;10.60;;;2.70;;
58621;SDS011;44389;51.578;5.456;2023-05-23T13:21:46;10.43;;;3.17;;
58621;SDS011;44389;51.578;5.456;2023-05-23T13:24:11;12.05;;;2.88;;
58621;SDS011;44389;51.578;5.456;2023-05-23T13:26:37;10.43;;;2.55;;
58621;SDS011;44389;51.578;5.456;2023-05-23T13:29:02;10.43;;;3.05;;
58621;SDS011;44389;51.578;5.456;2023-05-23T13:31:27;9.32;;;3.00;;
58621;SDS011;44389;51.578;5.456;2023-05-23T13:33:53;9.63;;;2.80;;
58621;SDS011;44389;51.578;5.456;2023-05-23T13:36:18;12.65;;;3.00;;
58621;SDS011;44389;51.578;5.456;2023-05-23T13:38:43;11.65;;;2.92;;
58621;SDS011;44389;51.578;5.456;2023-05-23T13:41:09;10.48;;;2.50;;
58621;SDS011;44389;51.578;5.456;2023-05-23T13:43:34;10.27;;;3.17;;
58621;SDS011;44389;51.578;5.456;2023-05-23T13:46:00;12.73;;;2.58;;
58621;SDS011;44389;51.578;5.456;2023-05-23T13:48:26;12.10;;;3.10;;
58621;SDS011;44389;51.578;5.456;2023-05-23T13:50:52;12.55;;;2.85;;
58621;SDS011;44389;51.578;5.456;2023-05-23T13:53:17;10.88;;;3.08;;
58621;SDS011;44389;51.578;5.456;2023-05-23T13:55:42;9.25;;;2.97;;
58621;SDS011;44389;51.578;5.456;2023-05-23T13:58:11;12.68;;;3.03;;
58621;SDS011;44389;51.578;5.456;2023-05-23T14:00:36;9.77;;;3.10;;
58621;SDS011;44389;51.578;5.456;2023-05-23T14:03:02;14.25;;;2.72;;
58621;SDS011;44389;51.578;5.456;2023-05-23T14:05:28;11.00;;;2.67;;
58621;SDS011;44389;51.578;5.456;2023-05-23T14:07:53;9.32;;;2.58;;
58621;SDS011;44389;51.578;5.456;2023-05-23T14:10:19;10.68;;;2.47;;
58621;SDS011;44389;51.578;5.456;2023-05-23T14:12:45;15.02;;;3.40;;
58621;SDS011;44389;51.578;5.456;2023-05-23T14:15:11;9.55;;;3.08;;
58621;SDS011;44389;51.578;5.456;2023-05-23T14:17:36;11.27;;;2.67;;
58621;SDS011;44389;51.578;5.456;2023-05-23T14:20:02;10.48;;;2.97;;
58621;SDS011;44389;51.578;5.456;2023-05-23T14:22:28;10.48;;;2.97;;
58621;SDS011;44389;51.578;5.456;2023-05-23T14:24:53;12.00;;;3.35;;
58621;SDS011;44389;51.578;5.456;2023-05-23T14:27:18;7.93;;;2.60;;
58621;SDS011;44389;51.578;5.456;2023-05-23T14:29:43;9.95;;;3.03;;
58621;SDS011;44389;51.578;5.456;2023-05-23T14:32:10;11.02;;;3.17;;
58621;SDS011;44389;51.578;5.456;2023-05-23T14:34:36;8.70;;;2.67;;
58621;SDS011;44389;51.578;5.456;2023-05-23T14:37:02;14.98;;;3.13;;
58621;SDS011;44389;51.578;5.456;2023-05-23T14:39:27;10.40;;;2.90;;
58621;SDS011;44389;51.578;5.456;2023-05-23T14:41:53;12.52;;;3.20;;
58621;SDS011;44389;51.578;5.456;2023-05-23T14:44:19;15.10;;;3.45;;
58621;SDS011;44389;51.578;5.456;2023-05-23T14:46:44;11.10;;;2.83;;
58621;SDS011;44389;51.578;5.456;2023-05-23T14:49:13;13.02;;;3.58;;
58621;SDS011;44389;51.578;5.456;2023-05-23T14:51:41;15.32;;;3.17;;
58621;SDS011;44389;51.578;5.456;2023-05-23T14:54:07;10.88;;;3.05;;
58621;SDS011;44389;51.578;5.456;2023-05-23T14:56:33;9.90;;;3.05;;
58621;SDS011;44389;51.578;5.456;2023-05-23T14:59:00;10.93;;;3.22;;